Blue River, Canada
Current Conditions -  °F | °C
As of 2:00 PM on Wednesday 28 Jan 2015 (Local Time) from CYRV Reporting Station
Overcast Overcast  
Wind Chill: 36°   Ceiling: 1600
Heat Index: 36°   Visibility: NA
Dew Point: 34°   Wind: 3mph
Humidity: 93%   Direction: 150°SSE
Pressure: 30.42"   Gusts: NA
Location:  52.11°N, 119.31°W
Report Text: CYRV 282200Z AUTO 15003KT OVC016 02/01 A3042 RMK WX MISG VIS MISG SLP321
Loading
Personal Weather Stations






























Interactive Weather Map New forecast layout! Learn more

10-Day Weather Forecast

Advertisements
Track Severe Weather on mobile